Time,TemperatureF,DewpointF,PressureIn,WindDirection,WindDirectionDegrees,WindSpeedMPH,WindSpeedGustMPH,Humidity,HourlyPrecipIn,Conditions,Clouds,dailyrainin,SoftwareType,DateUTC
2013-09-20 00:13:00,64.0,59.0,30.02,North,5,0.0,0.0,83,0.00,,,0.02,,2013-09-20 05:13:00,
2013-09-20 00:23:00,64.0,59.0,30.02,North,5,0.0,1.0,83,0.00,,,0.02,,2013-09-20 05:23:00,
2013-09-20 00:53:00,64.0,57.0,30.02,NNW,341,0.0,1.0,77,0.00,,,0.02,,2013-09-20 05:53:00,
2013-09-20 01:12:00,64.0,55.0,30.02,North,360,0.0,4.0,72,0.00,,,0.02,,2013-09-20 06:12:00,
2013-09-20 01:22:00,64.0,54.0,30.03,NW,311,1.0,8.0,71,0.00,,,0.02,,2013-09-20 06:22:00,
2013-09-20 01:52:00,63.0,54.0,30.03,NNW,333,2.0,7.0,72,0.00,,,0.02,,2013-09-20 06:52:00,
2013-09-20 02:12:00,63.0,54.0,30.04,North,355,0.0,5.0,73,0.00,,,0.02,,2013-09-20 07:12:00,
2013-09-20 02:22:00,62.0,54.0,30.04,NNW,338,1.0,7.0,74,0.00,,,0.02,,2013-09-20 07:22:00,
2013-09-20 02:52:00,61.0,53.0,30.04,NW,323,0.0,6.0,76,0.00,,,0.02,,2013-09-20 07:52:00,
2013-09-20 03:11:00,61.0,54.0,30.04,NE,45,0.0,0.0,77,0.00,,,0.02,,2013-09-20 08:11:00,
2013-09-20 03:22:00,60.0,53.0,30.03,NNE,14,0.0,0.0,77,0.00,,,0.02,,2013-09-20 08:22:00,
2013-09-20 03:52:00,59.0,52.0,30.03,NNE,14,0.0,0.0,79,0.00,,,0.02,,2013-09-20 08:52:00,
2013-09-20 04:22:00,59.0,53.0,30.04,NNE,14,0.0,0.0,80,0.00,,,0.02,,2013-09-20 09:22:00,
2013-09-20 04:53:00,57.0,52.0,30.06,NNE,14,0.0,0.0,83,0.00,,,0.02,,2013-09-20 09:53:00,
2013-09-20 05:23:00,56.0,52.0,30.06,NNE,14,0.0,0.0,86,0.00,,,0.02,,2013-09-20 10:23:00,
2013-09-20 05:53:00,56.0,52.0,30.07,NNE,14,0.0,0.0,87,0.00,,,0.02,,2013-09-20 10:53:00,
2013-09-20 06:12:00,55.0,52.0,30.07,NNE,14,0.0,0.0,88,0.00,,,0.02,,2013-09-20 11:12:00,
2013-09-20 06:23:00,55.0,52.0,30.08,NNE,14,0.0,0.0,88,0.00,,,0.02,,2013-09-20 11:23:00,
2013-09-20 06:52:00,55.0,52.0,30.09,NNE,14,0.0,1.0,88,0.00,,,0.02,,2013-09-20 11:52:00,
2013-09-20 07:12:00,55.0,52.0,30.09,NNE,14,0.0,0.0,88,0.00,,,0.02,,2013-09-20 12:12:00,
2013-09-20 07:22:00,55.0,52.0,30.10,NNE,14,0.0,1.0,89,0.00,,,0.02,,2013-09-20 12:22:00,
2013-09-20 07:52:00,54.0,51.0,30.11,NNE,12,0.0,1.0,89,0.00,,,0.02,,2013-09-20 12:52:00,
2013-09-20 08:12:00,54.0,51.0,30.11,NNE,12,0.0,0.0,89,0.00,,,0.02,,2013-09-20 13:12:00,
2013-09-20 08:21:00,54.0,51.0,30.13,NNE,12,0.0,1.0,90,0.00,,,0.02,,2013-09-20 13:21:00,
2013-09-20 08:52:00,55.0,52.0,30.14,NNW,336,0.0,2.0,89,0.00,,,0.02,,2013-09-20 13:52:00,
2013-09-20 09:21:00,56.0,52.0,30.14,North,355,0.0,4.0,87,0.00,,,0.02,,2013-09-20 14:21:00,
2013-09-20 09:52:00,58.0,53.0,30.15,East,101,0.0,5.0,82,0.00,,,0.02,,2013-09-20 14:52:00,
2013-09-20 10:12:00,59.0,52.0,30.15,NE,53,1.0,4.0,77,0.00,,,0.02,,2013-09-20 15:12:00,
2013-09-20 10:22:00,61.0,52.0,30.15,NW,319,1.0,4.0,71,0.00,,,0.02,,2013-09-20 15:22:00,
2013-09-20 10:54:00,62.0,49.0,30.15,WNW,294,1.0,11.0,63,0.00,,,0.02,,2013-09-20 15:54:00,
2013-09-20 11:23:00,64.0,49.0,30.12,SSE,167,1.0,4.0,59,0.00,,,0.02,,2013-09-20 16:23:00,
2013-09-20 11:52:00,65.0,48.0,30.12,North,360,1.0,6.0,55,0.00,,,0.02,,2013-09-20 16:52:00,
2013-09-20 12:13:00,66.0,51.0,30.12,NNE,33,0.0,4.0,59,0.00,,,0.02,,2013-09-20 17:13:00,
2013-09-20 12:24:00,66.0,49.0,30.12,NNE,19,0.0,6.0,55,0.00,,,0.02,,2013-09-20 17:24:00,
2013-09-20 12:53:00,67.0,49.0,30.11,NNW,327,1.0,5.0,53,0.00,,,0.02,,2013-09-20 17:53:00,
2013-09-20 13:12:00,68.0,49.0,30.10,NNW,333,3.0,10.0,51,0.00,,,0.02,,2013-09-20 18:12:00,
2013-09-20 13:22:00,69.0,50.0,30.10,NNE,13,1.0,5.0,51,0.00,,,0.02,,2013-09-20 18:22:00,
2013-09-20 13:52:00,70.0,50.0,30.09,NNW,344,2.0,7.0,50,0.00,,,0.02,,2013-09-20 18:52:00,
2013-09-20 14:11:00,71.0,50.0,30.08,NE,49,1.0,7.0,48,0.00,,,0.02,,2013-09-20 19:11:00,
2013-09-20 14:22:00,72.0,51.0,30.07,NNW,329,1.0,7.0,48,0.00,,,0.02,,2013-09-20 19:22:00,
2013-09-20 14:52:00,72.0,51.0,30.06,NNW,334,3.0,8.0,48,0.00,,,0.02,,2013-09-20 19:52:00,
2013-09-20 15:22:00,73.0,50.0,30.04,NW,317,2.0,7.0,45,0.00,,,0.02,,2013-09-20 20:22:00,
2013-09-20 15:42:00,74.0,52.0,30.04,NNW,331,1.0,6.0,47,0.00,,,0.02,,2013-09-20 20:42:00,
2013-09-20 15:52:00,75.0,52.0,30.03,NW,317,0.0,7.0,44,0.00,,,0.02,,2013-09-20 20:52:00,
2013-09-20 16:21:00,75.0,52.0,30.01,North,360,1.0,6.0,44,0.00,,,0.01,,2013-09-20 21:21:00,
2013-09-20 16:54:00,76.0,52.0,30.00,North,350,0.0,6.0,43,0.00,,,0.01,,2013-09-20 21:54:00,
2013-09-20 17:14:00,76.0,51.0,30.00,NE,42,3.0,8.0,41,0.00,,,0.01,,2013-09-20 22:14:00,
2013-09-20 17:23:00,76.0,51.0,30.00,North,355,0.0,7.0,41,0.00,,,0.01,,2013-09-20 22:23:00,
2013-09-20 17:53:00,76.0,51.0,29.99,NNW,344,1.0,10.0,41,0.00,,,0.01,,2013-09-20 22:53:00,
2013-09-20 18:13:00,75.0,50.0,29.99,NNW,327,3.0,6.0,42,0.00,,,0.01,,2013-09-20 23:13:00,
2013-09-20 18:22:00,75.0,50.0,29.99,NW,319,2.0,6.0,42,0.00,,,0.01,,2013-09-20 23:22:00,
2013-09-20 18:53:00,73.0,50.0,29.99,North,11,0.0,6.0,45,0.00,,,0.01,,2013-09-20 23:53:00,
2013-09-20 19:11:00,71.0,52.0,29.99,North,10,0.0,2.0,51,0.00,,,0.00,,2013-09-21 00:11:00,
2013-09-20 19:21:00,69.0,52.0,29.99,North,10,0.0,0.0,54,0.00,,,0.00,,2013-09-21 00:21:00,
2013-09-20 20:12:00,64.0,52.0,30.00,North,10,0.0,0.0,66,0.00,,,0.00,,2013-09-21 01:12:00,
2013-09-20 20:22:00,62.0,52.0,30.01,North,10,0.0,0.0,71,0.00,,,0.00,,2013-09-21 01:22:00,
2013-09-20 22:22:00,54.0,50.0,30.03,East,98,0.0,0.0,85,0.00,,,0.00,,2013-09-21 03:22:00,
2013-09-20 22:54:00,53.0,49.0,30.03,East,99,0.0,0.0,86,0.00,,,0.00,,2013-09-21 03:54:00,
2013-09-20 23:14:00,53.0,49.0,30.03,East,98,0.0,0.0,87,0.00,,,0.00,,2013-09-21 04:14:00,
2013-09-20 23:24:00,52.0,48.0,30.03,East,99,0.0,0.0,86,0.00,,,0.00,,2013-09-21 04:24:00,